createdAt,value
2023-03-07T00:04:47.781Z,0.92
2023-03-07T00:10:12.312Z,0.88
2023-03-07T00:15:38.333Z,0.74
2023-03-07T00:21:07.650Z,0.62
2023-03-07T00:26:31.371Z,0.52
2023-03-07T00:31:56.571Z,0.42
2023-03-07T00:37:20.915Z,0.33
2023-03-07T00:42:44.926Z,0.24
2023-03-07T00:48:09.183Z,0.20
2023-03-07T00:53:33.072Z,0.24
2023-03-07T00:58:57.419Z,0.30
2023-03-07T01:04:22.310Z,0.33
2023-03-07T01:09:51.802Z,0.30
2023-03-07T01:15:15.737Z,0.23
2023-03-07T01:20:40.957Z,0.18
2023-03-07T01:26:05.552Z,0.14
2023-03-07T01:31:30.900Z,0.04
2023-03-07T01:36:56.456Z,-0.01
2023-03-07T01:42:22.143Z,-0.08
2023-03-07T01:47:48.125Z,-0.15
2023-03-07T01:53:12.597Z,-0.22
2023-03-07T01:58:39.285Z,-0.26
2023-03-07T02:04:14.173Z,-0.26
2023-03-07T02:09:39.760Z,-0.21
2023-03-07T02:15:05.156Z,-0.18
2023-03-07T02:21:09.808Z,-0.12
2023-03-07T02:26:51.446Z,-0.08
2023-03-07T02:32:16.231Z,-0.01
2023-03-07T02:37:42.142Z,0.05
2023-03-07T02:43:10.061Z,0.13
2023-03-07T02:48:36.489Z,0.16
2023-03-07T02:54:00.766Z,0.16
2023-03-07T02:59:25.151Z,0.13
2023-03-07T03:04:49.541Z,0.07
2023-03-07T03:10:13.442Z,-0.02
2023-03-07T03:15:39.256Z,-0.10
2023-03-07T03:21:11.492Z,-0.16
2023-03-07T03:26:36.998Z,-0.17
2023-03-07T03:32:02.137Z,-0.17
2023-03-07T03:37:27.570Z,-0.14
2023-03-07T03:42:53.690Z,-0.12
2023-03-07T03:48:18.141Z,-0.07
2023-03-07T03:53:42.937Z,-0.04
2023-03-07T03:59:08.502Z,-0.05
2023-03-07T04:04:32.968Z,-0.17
2023-03-07T04:09:57.229Z,-0.37
2023-03-07T04:15:21.795Z,-0.41
2023-03-07T04:20:47.678Z,-0.41
2023-03-07T04:26:13.058Z,-0.45
2023-03-07T04:31:37.062Z,-0.48
2023-03-07T04:37:02.620Z,-0.49
2023-03-07T04:42:26.592Z,-0.47
2023-03-07T04:47:51.022Z,-0.35
2023-03-07T04:53:15.823Z,-0.22
2023-03-07T04:58:41.681Z,-0.11
2023-03-07T05:04:06.302Z,-0.06
2023-03-07T05:09:31.107Z,-0.05
2023-03-07T05:14:56.430Z,-0.05
2023-03-07T05:20:20.495Z,-0.07
2023-03-07T05:25:45.321Z,-0.09
2023-03-07T05:31:10.744Z,-0.15
2023-03-07T05:36:35.255Z,-0.24
2023-03-07T05:42:00.280Z,-0.32
2023-03-07T05:47:25.774Z,-0.38
2023-03-07T05:52:50.513Z,-0.38
2023-03-07T05:58:16.026Z,-0.34
2023-03-07T06:03:44.503Z,-0.26
2023-03-07T06:09:09.022Z,-0.13
2023-03-07T06:14:34.002Z,0.08
2023-03-07T06:19:58.590Z,0.27
2023-03-07T06:25:23.403Z,0.50
2023-03-07T06:30:48.735Z,0.72
2023-03-07T06:36:16.585Z,0.88
2023-03-07T06:41:43.204Z,0.97
2023-03-07T06:47:08.220Z,1.01
2023-03-07T06:52:34.219Z,1.03
2023-03-07T06:57:58.632Z,1.07
2023-03-07T07:03:24.629Z,1.18
2023-03-07T07:08:49.573Z,1.38
2023-03-07T07:14:14.531Z,1.54
2023-03-07T07:19:39.277Z,1.68
2023-03-07T07:25:03.992Z,1.82
2023-03-07T07:30:29.330Z,2.03
2023-03-07T07:35:54.785Z,2.27
2023-03-07T07:41:19.910Z,2.39
2023-03-07T07:46:45.167Z,2.36
2023-03-07T07:52:09.744Z,2.41
2023-03-07T07:57:34.421Z,2.45
2023-03-07T08:02:59.809Z,2.50
2023-03-07T08:08:25.323Z,2.57
2023-03-07T08:13:50.320Z,2.63
2023-03-07T08:19:14.824Z,2.68
2023-03-07T08:24:41.108Z,2.75
2023-03-07T08:30:07.276Z,2.90
2023-03-07T08:35:31.998Z,2.90
2023-03-07T08:41:04.891Z,2.83
2023-03-07T08:46:30.048Z,2.90
2023-03-07T08:51:54.197Z,2.93
2023-03-07T08:57:18.545Z,2.96
2023-03-07T09:02:42.815Z,3.07
2023-03-07T09:08:08.598Z,3.22
2023-03-07T09:13:42.954Z,3.37
2023-03-07T09:19:15.066Z,3.56
2023-03-07T09:24:39.685Z,3.86
2023-03-07T09:30:04.517Z,3.99
2023-03-07T09:35:29.193Z,4.04
2023-03-07T09:40:53.560Z,4.03
2023-03-07T09:46:30.731Z,4.00
2023-03-07T09:52:00.017Z,3.99
2023-03-07T09:57:32.155Z,4.12
2023-03-07T10:03:21.696Z,4.34
2023-03-07T10:08:46.412Z,4.54
2023-03-07T10:14:32.104Z,4.62
2023-03-07T10:20:18.617Z,4.67
2023-03-07T10:25:53.688Z,4.75
2023-03-07T10:31:41.905Z,4.82
2023-03-07T10:37:17.258Z,4.81
2023-03-07T10:42:42.684Z,4.84
2023-03-07T10:48:10.218Z,4.73
2023-03-07T10:53:38.655Z,4.74
2023-03-07T10:59:11.406Z,4.84
2023-03-07T11:04:46.080Z,5.01
2023-03-07T11:10:34.783Z,5.17
2023-03-07T11:16:20.833Z,5.24
2023-03-07T11:21:56.643Z,5.35
2023-03-07T11:27:47.191Z,5.42
2023-03-07T11:33:17.892Z,5.56
2023-03-07T11:39:01.933Z,5.66
2023-03-07T11:44:36.700Z,5.71
2023-03-07T11:50:18.916Z,5.65
2023-03-07T11:55:45.994Z,5.53
2023-03-07T12:01:14.009Z,5.52
2023-03-07T12:06:50.387Z,5.60
2023-03-07T12:12:32.418Z,5.68
2023-03-07T12:17:59.141Z,5.68
2023-03-07T12:23:25.677Z,5.72
2023-03-07T12:29:10.059Z,5.78
2023-03-07T12:34:43.610Z,5.84
2023-03-07T12:40:21.492Z,5.79
2023-03-07T12:45:54.394Z,5.85
2023-03-07T12:51:38.596Z,6.07
2023-03-07T12:57:02.451Z,6.23
2023-03-07T13:02:44.624Z,6.08
2023-03-07T13:08:18.641Z,6.03
2023-03-07T13:13:43.673Z,6.02
2023-03-07T13:19:35.757Z,5.97
2023-03-07T13:25:19.952Z,6.06
2023-03-07T13:31:16.425Z,6.10
2023-03-07T13:36:40.348Z,6.13
2023-03-07T13:42:25.671Z,6.11
2023-03-07T13:47:50.431Z,6.04
2023-03-07T13:53:19.168Z,5.99
2023-03-07T13:59:01.908Z,6.03
2023-03-07T14:04:39.994Z,6.08
2023-03-07T14:10:22.256Z,6.18
2023-03-07T14:15:57.467Z,6.14
2023-03-07T14:21:45.986Z,6.07
2023-03-07T14:27:15.202Z,6.06
2023-03-07T14:32:41.298Z,6.03
2023-03-07T14:38:19.861Z,6.03
2023-03-07T14:44:04.427Z,6.03
2023-03-07T14:49:38.396Z,6.03
2023-03-07T14:55:06.592Z,6.03
2023-03-07T15:00:33.097Z,6.03
2023-03-07T15:06:00.346Z,5.98
2023-03-07T15:11:33.606Z,5.98
2023-03-07T15:17:04.251Z,5.99
2023-03-07T15:22:31.622Z,5.98
2023-03-07T15:28:25.018Z,5.95
2023-03-07T15:33:49.340Z,5.89
2023-03-07T15:39:27.183Z,5.83
2023-03-07T15:45:03.740Z,5.76
2023-03-07T15:50:30.158Z,5.67
2023-03-07T15:56:00.697Z,5.63
2023-03-07T16:01:27.597Z,5.60
2023-03-07T16:06:52.005Z,5.55
2023-03-07T16:12:19.701Z,5.53
2023-03-07T16:17:43.803Z,5.50
2023-03-07T16:23:13.302Z,5.47
2023-03-07T16:28:39.900Z,5.44
2023-03-07T16:34:04.057Z,5.39
2023-03-07T16:39:27.944Z,5.32
2023-03-07T16:44:52.528Z,5.23
2023-03-07T16:50:23.657Z,5.12
2023-03-07T16:55:48.346Z,5.03
2023-03-07T17:01:14.753Z,4.93
2023-03-07T17:06:39.817Z,4.84
2023-03-07T17:12:03.576Z,4.76
2023-03-07T17:17:33.891Z,4.67
2023-03-07T17:22:58.137Z,4.64
2023-03-07T17:28:22.257Z,4.61
2023-03-07T17:33:47.226Z,4.58
2023-03-07T17:39:11.646Z,4.56
2023-03-07T17:44:37.157Z,4.57
2023-03-07T17:50:01.984Z,4.63
2023-03-07T17:55:26.419Z,4.65
2023-03-07T18:00:50.432Z,4.67
2023-03-07T18:06:15.012Z,4.70
2023-03-07T18:11:39.251Z,4.70
2023-03-07T18:17:03.458Z,4.69
2023-03-07T18:22:27.785Z,4.68
2023-03-07T18:27:51.794Z,4.71
2023-03-07T18:33:15.886Z,4.62
2023-03-07T18:38:41.950Z,4.42
2023-03-07T18:44:06.847Z,4.26
2023-03-07T18:49:30.961Z,4.13
2023-03-07T18:54:55.168Z,3.90
2023-03-07T19:00:19.787Z,3.64
2023-03-07T19:05:48.620Z,3.30
2023-03-07T19:11:15.204Z,3.00
2023-03-07T19:16:40.040Z,2.78
2023-03-07T19:22:04.334Z,2.62
2023-03-07T19:27:28.543Z,2.53
2023-03-07T19:32:52.454Z,2.47
2023-03-07T19:38:16.603Z,2.37
2023-03-07T19:43:41.855Z,2.20
2023-03-07T19:49:06.886Z,2.12
2023-03-07T19:54:31.433Z,1.99
2023-03-07T19:59:56.667Z,1.93
2023-03-07T20:05:21.045Z,1.91
2023-03-07T20:10:45.515Z,1.87
2023-03-07T20:16:44.847Z,1.79
2023-03-07T20:22:44.750Z,1.76
2023-03-07T20:28:44.480Z,1.75
2023-03-07T20:34:44.015Z,1.72
2023-03-07T20:40:43.099Z,1.69
2023-03-07T20:46:12.652Z,1.65
2023-03-07T20:51:37.253Z,1.61
2023-03-07T20:57:01.847Z,1.61
2023-03-07T21:02:26.309Z,1.58
2023-03-07T21:07:50.354Z,1.53
2023-03-07T21:13:14.999Z,1.51
2023-03-07T21:18:40.650Z,1.52
2023-03-07T21:24:06.333Z,1.50
2023-03-07T21:29:30.670Z,1.43
2023-03-07T21:34:54.434Z,1.40
2023-03-07T21:40:18.714Z,1.39
2023-03-07T21:45:43.063Z,1.34
2023-03-07T21:51:08.563Z,1.30
2023-03-07T21:56:33.383Z,1.31
2023-03-07T22:01:57.629Z,1.24
2023-03-07T22:07:21.684Z,1.10
2023-03-07T22:12:45.514Z,1.06
2023-03-07T22:18:09.054Z,1.08
2023-03-07T22:23:33.168Z,1.12
2023-03-07T22:28:58.323Z,1.12
2023-03-07T22:34:22.681Z,1.14
2023-03-07T22:39:46.844Z,1.07
2023-03-07T22:45:11.113Z,0.99
2023-03-07T22:50:35.023Z,0.87
2023-03-07T22:55:59.938Z,0.75
2023-03-07T23:01:27.690Z,0.72
2023-03-07T23:06:51.862Z,0.73
2023-03-07T23:12:16.109Z,0.71
2023-03-07T23:17:40.014Z,0.69
2023-03-07T23:23:03.876Z,0.68
2023-03-07T23:28:28.030Z,0.68
2023-03-07T23:33:56.620Z,0.65
2023-03-07T23:39:20.896Z,0.57
2023-03-07T23:44:44.589Z,0.52
2023-03-07T23:50:09.901Z,0.48
2023-03-07T23:55:34.399Z,0.45
